South Woodstock, VT (05071)

5:24 AM EDT on April 18, 2015 (GMT -0400)
Quechee Schoolhouse | | Change Station
CLOSE
Current Station
Personal Weather Station
Location: Woodstock, VT
Elevation: 1024 ft
Nearby Weather Stations
Active Advisory: Special Statement

Elev 1024 ft 43.65 °N, 72.47 °W | Updated 6 seconds ago

Clear
Clear
38.1 °F
Feels Like 38 °F
N
0.0
Wind Variable Wind from WSW
Gusts 0.0 mph

Today
High -- | Low -- °F
--% Chance of Precip.
Yesterday
High -- | Low -- °F
Precip. -- in
6:03 AM 7:36 PM
Waning Crescent, 0% visible
Pressure 29.92 in
Visibility 10.0 miles
Clouds Clear
Windchill 38 °F
Dew Point 38 °F
Humidity 99%
Rainfall 0.00 in
Snow Depth Not available.
UV 0.0 out of 12
Pollen 4.60 out of 12
Air Quality Not available.
Flu Activity Regional
METAR KLEB 180853Z AUTO 00000KT 10SM CLR 03/02 A2992 RMK AO2 SLP131 T00280017 55000

More Conditions Fewer Conditions

Pressure 29.92 in
Visibility 10.0 miles
Clouds Clear
Windchill 38 °F
Dew Point 38 °F
Humidity 99%
Rainfall 0.00 in
Snow Depth Not available.
UV 0.0 out of 12
Pollen 4.60 out of 12
Air Quality Not available.
Flu Activity Regional
METAR KLEB 180853Z AUTO 00000KT 10SM CLR 03/02 A2992 RMK AO2 SLP131 T00280017 55000

More Conditions Fewer Conditions

10-Day Weather Forecast

Almanac

Astronomy

Apr. 18, 2015 Rise Set
Actual Time
Civil Twilight
Nautical Twilight
Astronomical Twilight
Moon
Length of Visible Light
Length of Day
Tomorrow will be .
, % of the Moon is Illuminated

Today's Extremes

State Highs State Lows

Community

WunderPhotos

Upload Photos

1,814,350 photos uploaded!

WunderBlogs® & News

Nearby

Air Quality

  Air Quality AQ Index Pollutant
Not available.

Snow Depth

Station Depth Elevation

Earthquake Activity

City Distance Mag. Time & Date
Minimum magnitude displayed is 2.5.

Coastal Water Temperatures

Place Temperature

Stations

Nearby Weather Stations

Station Location Temp. Windchill Dew Point Humidity Wind Precip. Elev Updated Type
                   
Special Statement
Statement as of 4:05 AM EDT on April 18, 2015

... Localized fire weather concerns across southern Vermont
today...

The combination of dry fuels, gusty winds and low relative
humidity values will result in the potential for localized fire
weather concerns across southern Vermont today. Weak low pressure
passing north of the border will provide the region with gusty
winds up to 25 mph, along with scattered showers though mainly
across northern New York and northern Vermont. With clouds and
precipitation in the vicinity, minimum relative humidity values
around 30% will be sub-critical across southern Vermont, but
caution should be used if any open burning is planned.


Lahiff